createdAt,value
2018-06-22T00:01:38.618Z,101621.00
2018-06-22T00:04:09.783Z,101627.00
2018-06-22T00:06:40.250Z,101623.00
2018-06-22T00:09:11.523Z,101622.00
2018-06-22T00:11:41.643Z,101628.00
2018-06-22T00:14:11.868Z,101631.00
2018-06-22T00:16:42.293Z,101628.00
2018-06-22T00:19:12.438Z,101631.00
2018-06-22T00:21:43.190Z,101634.00
2018-06-22T00:24:13.476Z,101628.00
2018-06-22T00:26:43.743Z,101633.00
2018-06-22T00:29:14.026Z,101631.00
2018-06-22T00:31:44.382Z,101634.00
2018-06-22T00:34:14.647Z,101631.00
2018-06-22T00:36:44.843Z,101619.00
2018-06-22T00:39:15.007Z,101632.00
2018-06-22T00:41:45.511Z,101622.00
2018-06-22T00:44:16.007Z,101623.00
2018-06-22T00:46:47.329Z,101615.00
2018-06-22T00:49:17.528Z,101612.00
2018-06-22T00:51:47.670Z,101616.00
2018-06-22T00:54:18.777Z,101612.00
2018-06-22T00:56:49.304Z,101615.00
2018-06-22T00:59:20.421Z,101619.00
2018-06-22T01:01:50.836Z,101618.00
2018-06-22T01:04:21.198Z,101617.00
2018-06-22T01:06:52.676Z,101612.00
2018-06-22T01:09:23.438Z,101608.00
2018-06-22T01:11:54.001Z,101620.00
2018-06-22T01:14:24.196Z,101613.00
2018-06-22T01:16:55.094Z,101616.00
2018-06-22T01:19:25.691Z,101615.00
2018-06-22T01:21:56.269Z,101621.00
2018-06-22T01:24:29.736Z,101626.00
2018-06-22T01:27:00.212Z,101615.00
2018-06-22T01:29:30.283Z,101624.00
2018-06-22T01:32:01.891Z,101632.00
2018-06-22T01:34:32.572Z,101632.00
2018-06-22T01:37:02.796Z,101635.00
2018-06-22T01:39:33.377Z,101628.00
2018-06-22T01:42:04.184Z,101622.00
2018-06-22T01:44:34.365Z,101612.00
2018-06-22T01:47:04.854Z,101620.00
2018-06-22T01:49:36.419Z,101624.00
2018-06-22T01:52:06.578Z,101625.00
2018-06-22T01:54:37.517Z,101625.00
2018-06-22T01:57:07.358Z,101635.00
2018-06-22T01:59:37.776Z,101637.00
2018-06-22T02:02:08.326Z,101642.00
2018-06-22T02:04:38.871Z,101632.00
2018-06-22T02:07:09.167Z,101627.00
2018-06-22T02:09:39.417Z,101631.00
2018-06-22T02:12:09.542Z,101629.00
2018-06-22T02:14:42.818Z,101633.00
2018-06-22T02:17:13.243Z,101634.00
2018-06-22T02:19:43.493Z,101634.00
2018-06-22T02:22:14.670Z,101645.00
2018-06-22T02:24:45.173Z,101641.00
2018-06-22T02:27:15.267Z,101640.00
2018-06-22T02:29:45.321Z,101636.00
2018-06-22T02:32:15.388Z,101650.00
2018-06-22T02:34:45.491Z,101652.00
2018-06-22T02:37:16.408Z,101647.00
2018-06-22T02:39:46.632Z,101650.00
2018-06-22T02:42:16.830Z,101648.00
2018-06-22T02:44:47.097Z,101658.00
2018-06-22T02:47:17.414Z,101647.00
2018-06-22T02:49:47.661Z,101656.00
2018-06-22T02:52:17.892Z,101650.00
2018-06-22T02:54:47.971Z,101657.00
2018-06-22T02:57:18.123Z,101657.00
2018-06-22T02:59:48.630Z,101661.00
2018-06-22T03:02:19.029Z,101662.00
2018-06-22T03:04:48.807Z,101654.00
2018-06-22T03:07:19.492Z,101657.00
2018-06-22T03:09:49.474Z,101648.00
2018-06-22T03:12:19.680Z,101649.00
2018-06-22T03:14:49.770Z,101649.00
2018-06-22T03:17:20.229Z,101646.00
2018-06-22T03:19:50.370Z,101645.00
2018-06-22T03:22:21.521Z,101644.00
2018-06-22T03:24:51.850Z,101642.00
2018-06-22T03:27:21.939Z,101639.00
2018-06-22T03:29:52.293Z,101638.00
2018-06-22T03:32:22.684Z,101628.00
2018-06-22T03:34:52.657Z,101630.00
2018-06-22T03:37:22.859Z,101636.00
2018-06-22T03:39:53.061Z,101624.00
2018-06-22T03:42:23.314Z,101631.00
2018-06-22T03:44:53.557Z,101619.00
2018-06-22T03:47:23.927Z,101634.00
2018-06-22T03:49:54.043Z,101627.00
2018-06-22T03:52:24.584Z,101636.00
2018-06-22T03:54:55.352Z,101641.00
2018-06-22T03:57:25.940Z,101626.00
2018-06-22T03:59:56.104Z,101637.00
2018-06-22T04:02:26.363Z,101632.00
2018-06-22T04:04:56.836Z,101642.00
2018-06-22T04:07:27.358Z,101638.00
2018-06-22T04:09:57.669Z,101639.00
2018-06-22T04:12:27.945Z,101648.00
2018-06-22T04:14:58.298Z,101654.00
2018-06-22T04:17:28.286Z,101649.00
2018-06-22T04:19:58.531Z,101648.00
2018-06-22T04:22:28.810Z,101651.00
2018-06-22T04:24:59.030Z,101653.00
2018-06-22T04:27:29.274Z,101646.00
2018-06-22T04:29:59.651Z,101634.00
2018-06-22T04:32:30.809Z,101645.00
2018-06-22T04:35:01.383Z,101649.00
2018-06-22T04:37:32.303Z,101651.00
2018-06-22T04:40:02.527Z,101649.00
2018-06-22T04:42:32.618Z,101653.00
2018-06-22T04:45:03.368Z,101656.00
2018-06-22T04:47:34.017Z,101641.00
2018-06-22T04:50:04.395Z,101644.00
2018-06-22T04:52:35.005Z,101644.00
2018-06-22T04:55:05.181Z,101651.00
2018-06-22T04:57:35.477Z,101654.00
2018-06-22T05:00:06.021Z,101662.00
2018-06-22T05:02:36.057Z,101665.00
2018-06-22T05:05:06.634Z,101666.00
2018-06-22T05:07:36.968Z,101670.00
2018-06-22T05:10:07.386Z,101680.00
2018-06-22T05:12:38.152Z,101675.00
2018-06-22T05:15:08.450Z,101676.00
2018-06-22T05:17:38.744Z,101688.00
2018-06-22T05:20:08.829Z,101678.00
2018-06-22T05:22:39.846Z,101683.00
2018-06-22T05:25:10.126Z,101676.00
2018-06-22T05:27:40.479Z,101680.00
2018-06-22T05:30:10.674Z,101679.00
2018-06-22T05:32:41.834Z,101675.00
2018-06-22T05:35:11.930Z,101689.00
2018-06-22T05:37:42.810Z,101685.00
2018-06-22T05:40:13.029Z,101691.00
2018-06-22T05:42:43.757Z,101694.00
2018-06-22T05:45:14.085Z,101697.00
2018-06-22T05:47:44.642Z,101702.00
2018-06-22T05:50:15.369Z,101698.00
2018-06-22T05:52:46.502Z,101699.00
2018-06-22T05:55:16.616Z,101709.00
2018-06-22T05:57:47.062Z,101712.00
2018-06-22T06:00:17.411Z,101718.00
2018-06-22T06:02:47.817Z,101702.00
2018-06-22T06:05:18.752Z,101713.00
2018-06-22T06:07:49.021Z,101711.00
2018-06-22T06:10:19.935Z,101718.00
2018-06-22T06:12:50.411Z,101716.00
2018-06-22T06:15:21.003Z,101721.00
2018-06-22T06:17:52.015Z,101714.00
2018-06-22T06:20:22.155Z,101720.00
2018-06-22T06:22:52.465Z,101727.00
2018-06-22T06:25:22.996Z,101730.00
2018-06-22T06:27:53.213Z,101729.00
2018-06-22T06:30:23.480Z,101735.00
2018-06-22T06:32:53.662Z,101737.00
2018-06-22T06:35:24.106Z,101748.00
2018-06-22T06:37:54.305Z,101745.00
2018-06-22T06:40:24.909Z,101760.00
2018-06-22T06:42:55.195Z,101758.00
2018-06-22T06:45:25.553Z,101747.00
2018-06-22T06:47:56.088Z,101750.00
2018-06-22T06:50:26.994Z,101737.00
2018-06-22T06:52:57.526Z,101741.00
2018-06-22T06:55:28.105Z,101744.00
2018-06-22T06:57:58.226Z,101741.00
2018-06-22T07:00:29.137Z,101736.00
2018-06-22T07:02:59.306Z,101741.00
2018-06-22T07:05:29.578Z,101735.00
2018-06-22T07:08:00.262Z,101742.00
2018-06-22T07:10:31.004Z,101743.00
2018-06-22T07:13:01.760Z,101748.00
2018-06-22T07:15:36.739Z,101742.00
2018-06-22T07:18:07.582Z,101750.00
2018-06-22T07:20:38.486Z,101753.00
2018-06-22T07:23:09.968Z,101758.00
2018-06-22T07:25:40.945Z,101758.00
2018-06-22T07:28:11.524Z,101764.00
2018-06-22T07:30:41.649Z,101759.00
2018-06-22T07:33:12.089Z,101771.00
2018-06-22T07:35:42.436Z,101766.00
2018-06-22T07:38:12.513Z,101751.00
2018-06-22T07:40:42.967Z,101748.00
2018-06-22T07:43:13.506Z,101761.00
2018-06-22T07:45:43.765Z,101761.00
2018-06-22T07:48:14.299Z,101775.00
2018-06-22T07:50:45.122Z,101756.00
2018-06-22T07:53:16.048Z,101752.00
2018-06-22T07:55:47.247Z,101757.00
2018-06-22T07:58:17.799Z,101768.00
2018-06-22T08:00:49.619Z,101761.00
2018-06-22T08:03:20.333Z,101760.00
2018-06-22T08:05:51.679Z,101756.00
2018-06-22T08:08:22.326Z,101746.00
2018-06-22T08:10:53.325Z,101743.00
2018-06-22T08:13:24.950Z,101755.00
2018-06-22T08:15:56.714Z,101759.00
2018-06-22T08:18:26.988Z,101762.00
2018-06-22T08:20:57.374Z,101776.00
2018-06-22T08:23:28.586Z,101756.00
2018-06-22T08:25:59.435Z,101763.00
2018-06-22T08:28:30.680Z,101761.00
2018-06-22T08:31:01.203Z,101765.00
2018-06-22T08:33:31.864Z,101757.00
2018-06-22T08:36:02.412Z,101760.00
2018-06-22T08:38:32.872Z,101749.00
2018-06-22T08:41:03.218Z,101750.00
2018-06-22T08:43:33.489Z,101757.00
2018-06-22T08:46:03.971Z,101755.00
2018-06-22T08:48:34.419Z,101761.00
2018-06-22T08:51:04.910Z,101743.00
2018-06-22T08:53:35.599Z,101756.00
2018-06-22T08:56:06.035Z,101751.00
2018-06-22T08:58:36.252Z,101754.00
2018-06-22T09:01:07.072Z,101751.00
2018-06-22T09:03:37.612Z,101748.00
2018-06-22T09:06:07.849Z,101755.00
2018-06-22T09:08:38.681Z,101741.00
2018-06-22T09:11:09.392Z,101746.00
2018-06-22T09:13:40.943Z,101740.00
2018-06-22T09:16:11.275Z,101747.00
2018-06-22T09:18:41.711Z,101769.00
2018-06-22T09:21:15.788Z,101745.00
2018-06-22T09:23:46.046Z,101743.00
2018-06-22T09:26:17.169Z,101735.00
2018-06-22T09:28:47.724Z,101747.00
2018-06-22T09:31:19.221Z,101757.00
2018-06-22T09:33:50.090Z,101750.00
2018-06-22T09:36:20.324Z,101753.00
2018-06-22T09:38:50.804Z,101755.00
2018-06-22T09:41:21.169Z,101749.00
2018-06-22T09:43:51.524Z,101760.00
2018-06-22T09:46:22.036Z,101767.00
2018-06-22T09:48:52.402Z,101762.00
2018-06-22T09:51:22.748Z,101750.00
2018-06-22T09:53:53.156Z,101761.00
2018-06-22T09:56:23.887Z,101759.00
2018-06-22T09:58:54.558Z,101754.00
2018-06-22T10:01:25.015Z,101746.00
2018-06-22T10:03:55.834Z,101746.00
2018-06-22T10:06:26.081Z,101754.00
2018-06-22T10:08:57.147Z,101743.00
2018-06-22T10:11:27.893Z,101755.00
2018-06-22T10:13:58.562Z,101758.00
2018-06-22T10:16:29.420Z,101746.00
2018-06-22T10:19:00.685Z,101746.00
2018-06-22T10:21:30.887Z,101751.00
2018-06-22T10:24:01.548Z,101759.00
2018-06-22T10:26:32.431Z,101761.00
2018-06-22T10:29:03.097Z,101756.00
2018-06-22T10:31:33.508Z,101758.00
2018-06-22T10:34:03.707Z,101757.00
2018-06-22T10:36:34.279Z,101759.00
2018-06-22T10:39:07.287Z,101758.00
2018-06-22T10:41:37.948Z,101758.00
2018-06-22T10:44:08.619Z,101758.00
2018-06-22T10:46:39.025Z,101759.00
2018-06-22T10:49:09.369Z,101764.00
2018-06-22T10:51:39.659Z,101764.00
2018-06-22T10:54:09.876Z,101750.00
2018-06-22T10:56:46.385Z,101770.00
2018-06-22T10:59:17.156Z,101761.00
2018-06-22T11:01:47.098Z,101756.00
2018-06-22T11:04:17.624Z,101754.00
2018-06-22T11:06:47.798Z,101753.00
2018-06-22T11:09:18.410Z,101760.00
2018-06-22T11:11:48.745Z,101760.00
2018-06-22T11:14:19.370Z,101746.00
2018-06-22T11:16:50.124Z,101739.00
2018-06-22T11:19:20.369Z,101741.00
2018-06-22T11:21:51.441Z,101739.00
2018-06-22T11:24:22.003Z,101759.00
2018-06-22T11:26:52.413Z,101748.00
2018-06-22T11:29:22.511Z,101739.00
2018-06-22T11:31:53.781Z,101738.00
2018-06-22T11:34:24.420Z,101729.00
2018-06-22T11:36:54.975Z,101713.00
2018-06-22T11:39:25.878Z,101729.00
2018-06-22T11:41:56.494Z,101738.00
2018-06-22T11:44:27.309Z,101724.00
2018-06-22T11:46:58.400Z,101752.00
2018-06-22T11:49:28.592Z,101737.00
2018-06-22T11:51:58.989Z,101727.00
2018-06-22T11:54:29.111Z,101734.00
2018-06-22T11:56:59.269Z,101725.00
2018-06-22T11:59:30.010Z,101714.00
2018-06-22T12:02:00.395Z,101730.00
2018-06-22T12:04:30.386Z,101717.00
2018-06-22T12:07:00.711Z,101725.00
2018-06-22T12:09:30.994Z,101709.00
2018-06-22T12:12:01.335Z,101716.00
2018-06-22T12:14:32.183Z,101710.00
2018-06-22T12:17:02.986Z,101703.00
2018-06-22T12:19:32.996Z,101704.00
2018-06-22T12:22:03.321Z,101709.00
2018-06-22T12:24:34.057Z,101704.00
2018-06-22T12:27:04.445Z,101707.00
2018-06-22T12:29:34.601Z,101699.00
2018-06-22T12:32:05.277Z,101706.00
2018-06-22T12:34:35.374Z,101712.00
2018-06-22T12:37:07.800Z,101705.00
2018-06-22T12:39:38.362Z,101701.00
2018-06-22T12:42:08.548Z,101704.00
2018-06-22T12:44:38.854Z,101699.00
2018-06-22T12:47:09.865Z,101694.00
2018-06-22T12:49:40.137Z,101700.00
2018-06-22T12:52:10.293Z,101693.00
2018-06-22T12:54:40.581Z,101696.00
2018-06-22T12:57:10.756Z,101686.00
2018-06-22T12:59:41.129Z,101693.00
2018-06-22T13:02:11.504Z,101695.00
2018-06-22T13:04:41.575Z,101696.00
2018-06-22T13:07:11.785Z,101692.00
2018-06-22T13:09:42.313Z,101685.00
2018-06-22T13:12:13.237Z,101687.00
2018-06-22T13:14:44.746Z,101685.00
2018-06-22T13:17:15.228Z,101683.00
2018-06-22T13:19:45.776Z,101687.00
2018-06-22T13:22:15.904Z,101677.00
2018-06-22T13:24:46.413Z,101680.00
2018-06-22T13:27:17.030Z,101681.00
2018-06-22T13:29:47.460Z,101689.00
2018-06-22T13:32:17.862Z,101676.00
2018-06-22T13:34:48.025Z,101672.00
2018-06-22T13:37:18.385Z,101672.00
2018-06-22T13:39:48.523Z,101669.00
2018-06-22T13:42:18.977Z,101663.00
2018-06-22T13:44:49.222Z,101670.00
2018-06-22T13:47:20.078Z,101666.00
2018-06-22T13:49:50.522Z,101668.00
2018-06-22T13:52:20.772Z,101647.00
2018-06-22T13:54:50.945Z,101655.00
2018-06-22T13:57:21.416Z,101650.00
2018-06-22T13:59:52.034Z,101640.00
2018-06-22T14:02:22.329Z,101649.00
2018-06-22T14:04:58.277Z,101655.00
2018-06-22T14:07:28.601Z,101654.00
2018-06-22T14:09:58.802Z,101647.00
2018-06-22T14:12:29.008Z,101643.00
2018-06-22T14:15:00.045Z,101645.00
2018-06-22T14:17:30.597Z,101651.00
2018-06-22T14:20:00.889Z,101649.00
2018-06-22T14:22:31.138Z,101665.00
2018-06-22T14:25:01.666Z,101650.00
2018-06-22T14:27:31.931Z,101642.00
2018-06-22T14:30:02.344Z,101644.00
2018-06-22T14:32:32.665Z,101643.00
2018-06-22T14:35:03.552Z,101638.00
2018-06-22T14:37:34.190Z,101644.00
2018-06-22T14:40:05.287Z,101652.00
2018-06-22T14:42:36.016Z,101646.00
2018-06-22T14:45:06.396Z,101655.00
2018-06-22T14:47:37.843Z,101649.00
2018-06-22T14:50:12.451Z,101635.00
2018-06-22T14:52:43.223Z,101639.00
2018-06-22T14:55:19.158Z,101646.00
2018-06-22T14:57:54.725Z,101651.00
2018-06-22T15:00:30.891Z,101648.00
2018-06-22T15:03:06.394Z,101648.00
2018-06-22T15:05:41.869Z,101655.00
2018-06-22T15:08:15.245Z,101651.00
2018-06-22T15:10:46.665Z,101654.00
2018-06-22T15:13:17.731Z,101650.00
2018-06-22T15:15:48.096Z,101657.00
2018-06-22T15:18:18.605Z,101658.00
2018-06-22T15:20:49.165Z,101650.00
2018-06-22T15:23:21.089Z,101648.00
2018-06-22T15:25:53.028Z,101647.00
2018-06-22T15:28:24.010Z,101656.00
2018-06-22T15:30:56.117Z,101657.00
2018-06-22T15:33:31.458Z,101648.00
2018-06-22T15:36:06.767Z,101659.00
2018-06-22T15:38:45.956Z,101649.00
2018-06-22T15:41:23.830Z,101652.00
2018-06-22T15:44:02.334Z,101645.00
2018-06-22T15:46:38.403Z,101649.00
2018-06-22T15:49:14.878Z,101651.00
2018-06-22T15:51:52.074Z,101645.00
2018-06-22T15:54:27.710Z,101651.00
2018-06-22T15:56:57.765Z,101645.00
2018-06-22T15:59:28.533Z,101641.00
2018-06-22T16:02:03.046Z,101635.00
2018-06-22T16:04:33.980Z,101633.00
2018-06-22T16:07:04.246Z,101636.00
2018-06-22T16:09:39.004Z,101635.00
2018-06-22T16:12:14.627Z,101640.00
2018-06-22T16:14:49.966Z,101635.00
2018-06-22T16:17:25.874Z,101640.00
2018-06-22T16:20:01.467Z,101632.00
2018-06-22T16:22:37.182Z,101634.00
2018-06-22T16:25:12.633Z,101642.00
2018-06-22T16:27:45.575Z,101639.00
2018-06-22T16:30:16.061Z,101635.00
2018-06-22T16:32:46.485Z,101638.00
2018-06-22T16:35:17.103Z,101628.00
2018-06-22T16:37:47.994Z,101632.00
2018-06-22T16:40:18.480Z,101632.00
2018-06-22T16:42:50.234Z,101627.00
2018-06-22T16:45:20.834Z,101629.00
2018-06-22T16:47:51.250Z,101630.00
2018-06-22T16:50:21.618Z,101627.00
2018-06-22T16:52:52.720Z,101625.00
2018-06-22T16:55:23.476Z,101628.00
2018-06-22T16:57:54.313Z,101624.00
2018-06-22T17:00:25.501Z,101617.00
2018-06-22T17:02:56.804Z,101614.00
2018-06-22T17:05:27.339Z,101617.00
2018-06-22T17:08:02.517Z,101616.00
2018-06-22T17:10:37.764Z,101616.00
2018-06-22T17:13:13.154Z,101609.00
2018-06-22T17:15:49.094Z,101607.00
2018-06-22T17:18:24.265Z,101603.00
2018-06-22T17:20:54.762Z,101602.00
2018-06-22T17:23:25.000Z,101596.00
2018-06-22T17:25:55.225Z,101590.00
2018-06-22T17:28:25.572Z,101593.00
2018-06-22T17:30:56.366Z,101588.00
2018-06-22T17:33:26.820Z,101587.00
2018-06-22T17:35:58.044Z,101594.00
2018-06-22T17:38:28.282Z,101592.00
2018-06-22T17:40:58.586Z,101585.00
2018-06-22T17:43:28.990Z,101594.00
2018-06-22T17:45:59.184Z,101586.00
2018-06-22T17:48:29.494Z,101589.00
2018-06-22T17:51:00.235Z,101585.00
2018-06-22T17:53:30.722Z,101584.00
2018-06-22T17:56:01.766Z,101586.00
2018-06-22T17:58:32.256Z,101599.00
2018-06-22T18:01:07.761Z,101596.00
2018-06-22T18:03:43.383Z,101599.00
2018-06-22T18:06:20.055Z,101601.00
2018-06-22T18:08:51.038Z,101593.00
2018-06-22T18:13:34.083Z,101598.00
2018-06-22T18:16:04.776Z,101596.00
2018-06-22T18:18:36.496Z,101596.00
2018-06-22T18:21:07.919Z,101592.00
2018-06-22T18:23:39.993Z,101593.00
2018-06-22T18:26:10.829Z,101593.00
2018-06-22T18:28:42.327Z,101598.00
2018-06-22T18:31:12.678Z,101601.00
2018-06-22T18:33:43.320Z,101593.00
2018-06-22T18:36:13.842Z,101595.00
2018-06-22T18:38:45.134Z,101598.00
2018-06-22T18:41:17.173Z,101591.00
2018-06-22T18:43:52.590Z,101601.00
2018-06-22T18:46:23.477Z,101600.00
2018-06-22T18:48:57.083Z,101596.00
2018-06-22T18:51:28.081Z,101600.00
2018-06-22T18:54:03.493Z,101592.00
2018-06-22T18:56:39.903Z,101593.00
2018-06-22T18:59:15.389Z,101597.00
2018-06-22T19:01:51.515Z,101596.00
2018-06-22T19:04:22.557Z,101596.00
2018-06-22T19:06:56.712Z,101604.00
2018-06-22T19:09:27.750Z,101600.00
2018-06-22T19:11:58.197Z,101604.00
2018-06-22T19:14:29.054Z,101598.00
2018-06-22T19:16:59.829Z,101602.00
2018-06-22T19:19:30.443Z,101595.00
2018-06-22T19:22:02.316Z,101600.00
2018-06-22T19:24:32.641Z,101600.00
2018-06-22T19:27:03.246Z,101606.00
2018-06-22T19:29:34.275Z,101603.00
2018-06-22T19:32:05.438Z,101607.00
2018-06-22T19:34:41.363Z,101607.00
2018-06-22T19:37:11.757Z,101603.00
2018-06-22T19:39:42.642Z,101605.00
2018-06-22T19:42:14.460Z,101604.00
2018-06-22T19:44:52.202Z,101603.00
2018-06-22T19:47:28.060Z,101603.00
2018-06-22T19:50:03.888Z,101617.00
2018-06-22T19:52:40.064Z,101619.00
2018-06-22T19:55:10.936Z,101608.00
2018-06-22T19:57:42.133Z,101613.00
2018-06-22T20:00:13.253Z,101612.00
2018-06-22T20:02:44.017Z,101609.00
2018-06-22T20:05:14.990Z,101609.00
2018-06-22T20:07:45.862Z,101617.00
2018-06-22T20:10:16.552Z,101621.00
2018-06-22T20:12:48.299Z,101618.00
2018-06-22T20:15:23.728Z,101631.00
2018-06-22T20:17:56.017Z,101621.00
2018-06-22T20:20:27.977Z,101624.00
2018-06-22T20:23:01.384Z,101626.00
2018-06-22T20:25:36.688Z,101624.00
2018-06-22T20:28:07.272Z,101626.00
2018-06-22T20:30:37.569Z,101644.00
2018-06-22T20:33:08.185Z,101640.00
2018-06-22T20:35:43.234Z,101653.00
2018-06-22T20:38:18.772Z,101646.00
2018-06-22T20:40:54.769Z,101646.00
2018-06-22T20:43:29.992Z,101650.00
2018-06-22T20:46:00.610Z,101658.00
2018-06-22T20:48:36.161Z,101657.00
2018-06-22T20:51:06.950Z,101650.00
2018-06-22T20:53:38.705Z,101654.00
2018-06-22T20:56:08.879Z,101653.00
2018-06-22T20:58:39.819Z,101658.00
2018-06-22T21:01:10.508Z,101663.00
2018-06-22T21:03:49.385Z,101653.00
2018-06-22T21:06:22.745Z,101661.00
2018-06-22T21:08:53.113Z,101651.00
2018-06-22T21:11:23.500Z,101645.00
2018-06-22T21:13:54.353Z,101641.00
2018-06-22T21:16:24.580Z,101648.00
2018-06-22T21:18:54.911Z,101650.00
2018-06-22T21:22:30.697Z,101655.00
2018-06-22T21:25:01.347Z,101648.00
2018-06-22T21:27:40.722Z,101646.00
2018-06-22T21:30:17.464Z,101647.00
2018-06-22T21:32:53.782Z,101648.00
2018-06-22T21:35:29.020Z,101656.00
2018-06-22T21:38:12.991Z,101641.00
2018-06-22T21:40:43.241Z,101643.00
2018-06-22T21:43:15.177Z,101652.00
2018-06-22T21:45:45.472Z,101642.00
2018-06-22T21:48:15.566Z,101651.00
2018-06-22T21:50:48.038Z,101649.00
2018-06-22T21:53:30.810Z,101652.00
2018-06-22T21:56:10.369Z,101654.00
2018-06-22T21:58:42.600Z,101656.00
2018-06-22T22:01:16.569Z,101662.00
2018-06-22T22:03:47.895Z,101664.00
2018-06-22T22:06:27.026Z,101644.00
2018-06-22T22:09:02.935Z,101655.00
2018-06-22T22:11:40.876Z,101660.00
2018-06-22T22:14:11.829Z,101648.00
2018-06-22T22:16:43.247Z,101648.00
2018-06-22T22:19:15.418Z,101644.00
2018-06-22T22:21:48.967Z,101638.00
2018-06-22T22:24:19.981Z,101639.00
2018-06-22T22:26:51.162Z,101638.00
2018-06-22T22:29:23.392Z,101636.00
2018-06-22T22:31:59.673Z,101635.00
2018-06-22T22:34:30.874Z,101645.00
2018-06-22T22:37:19.958Z,101642.00
2018-06-22T22:39:57.079Z,101645.00
2018-06-22T22:42:50.782Z,101630.00
2018-06-22T22:45:22.825Z,101629.00
2018-06-22T22:47:53.251Z,101629.00
2018-06-22T22:50:24.154Z,101621.00
2018-06-22T22:52:54.639Z,101633.00
2018-06-22T22:55:25.332Z,101623.00
2018-06-22T22:57:55.981Z,101630.00
2018-06-22T23:00:28.087Z,101630.00
2018-06-22T23:02:58.379Z,101635.00
2018-06-22T23:05:28.490Z,101633.00
2018-06-22T23:07:58.785Z,101635.00
2018-06-22T23:10:29.146Z,101625.00
2018-06-22T23:12:59.567Z,101626.00
2018-06-22T23:15:30.835Z,101625.00
2018-06-22T23:18:04.594Z,101632.00
2018-06-22T23:20:36.018Z,101626.00
2018-06-22T23:23:23.031Z,101634.00
2018-06-22T23:25:53.429Z,101639.00
2018-06-22T23:28:24.382Z,101635.00
2018-06-22T23:30:55.850Z,101637.00
2018-06-22T23:33:26.854Z,101627.00
2018-06-22T23:35:57.472Z,101637.00
2018-06-22T23:38:28.643Z,101631.00
2018-06-22T23:40:59.891Z,101637.00
2018-06-22T23:43:30.680Z,101636.00
2018-06-22T23:46:01.368Z,101626.00
2018-06-22T23:48:32.296Z,101642.00
2018-06-22T23:51:03.418Z,101624.00
2018-06-22T23:53:34.562Z,101627.00
2018-06-22T23:56:05.514Z,101630.00
2018-06-22T23:58:36.331Z,101624.00
